Time;durP1;ratioP1;P1;durP2;ratioP2;P2;SDS_P1;SDS_P2;PMS_P1;PMS_P2;Temp;Humidity;BMP_temperature;BMP_pressure;BME280_temperature;BME280_humidity;BME280_pressure;Samples;Min_cycle;Max_cycle;Signal;HPM_P1;HPM_P2
2023/07/21 00:00:10;;;;;;;14.45;9.38;;;;;;;;;;5225186;28;20025;-71
2023/07/21 00:02:41;;;;;;;16.50;9.20;;;;;;;;;;5225147;28;20032;-71
2023/07/21 00:05:13;;;;;;;13.80;9.18;;;;;;;;;;5223879;28;20017;-71
2023/07/21 00:07:44;;;;;;;18.95;10.88;;;;;;;;;;5224344;28;20013;-71
2023/07/21 00:10:14;;;;;;;59.67;8.35;;;;;;;;;;5224814;28;20474;-72
2023/07/21 00:12:48;;;;;;;22.27;6.15;;;;;;;;;;5225044;28;20494;-71
2023/07/21 00:15:19;;;;;;;73.15;7.68;;;;;;;;;;5224797;28;20017;-71
2023/07/21 00:17:49;;;;;;;21.73;8.25;;;;;;;;;;5224450;28;20025;-71
2023/07/21 00:20:21;;;;;;;16.05;9.65;;;;;;;;;;5224333;28;20016;-71
2023/07/21 00:22:52;;;;;;;18.40;11.15;;;;;;;;;;5225106;28;20021;-71
2023/07/21 00:25:22;;;;;;;17.17;9.90;;;;;;;;;;5224718;28;20013;-71
2023/07/21 00:27:52;;;;;;;14.98;8.07;;;;;;;;;;5224369;28;20032;-71
2023/07/21 00:30:23;;;;;;;19.90;9.43;;;;;;;;;;5224615;28;20497;-71
2023/07/21 00:32:53;;;;;;;18.45;10.15;;;;;;;;;;5224508;28;20044;-71
2023/07/21 00:35:24;;;;;;;24.52;12.18;;;;;;;;;;5224313;28;20032;-71
2023/07/21 00:37:58;;;;;;;16.92;9.85;;;;;;;;;;5224533;28;20548;-72
2023/07/21 00:40:30;;;;;;;17.80;10.30;;;;;;;;;;5224453;28;20025;-72
2023/07/21 00:43:00;;;;;;;25.98;11.70;;;;;;;;;;5224855;28;20017;-72
2023/07/21 00:45:34;;;;;;;25.15;13.75;;;;;;;;;;5224074;28;20383;-71
2023/07/21 00:48:07;;;;;;;18.42;10.95;;;;;;;;;;5224498;28;20378;-71
2023/07/21 00:50:41;;;;;;;17.75;9.82;;;;;;;;;;5224148;28;20082;-72
2023/07/21 00:53:12;;;;;;;14.95;9.95;;;;;;;;;;5224454;28;20025;-72
2023/07/21 00:55:42;;;;;;;16.27;8.93;;;;;;;;;;5223464;28;20046;-71
2023/07/21 00:58:13;;;;;;;15.30;8.90;;;;;;;;;;5224362;28;20028;-71
2023/07/21 01:00:43;;;;;;;16.70;9.65;;;;;;;;;;5224186;28;20459;-72
2023/07/21 01:03:15;;;;;;;14.88;9.45;;;;;;;;;;5224221;28;20036;-72
2023/07/21 01:05:47;;;;;;;17.65;10.70;;;;;;;;;;5223655;28;20032;-72
2023/07/21 01:08:18;;;;;;;17.25;10.93;;;;;;;;;;5223822;28;20021;-72
2023/07/21 01:10:48;;;;;;;27.23;13.48;;;;;;;;;;5224287;28;20425;-72
2023/07/21 01:13:20;;;;;;;23.98;14.00;;;;;;;;;;5224205;28;20021;-72
2023/07/21 01:15:52;;;;;;;23.92;13.82;;;;;;;;;;5223571;28;20467;-71
2023/07/21 01:18:24;;;;;;;23.77;13.95;;;;;;;;;;5223841;28;20025;-71
2023/07/21 01:20:55;;;;;;;20.70;11.68;;;;;;;;;;5223869;28;20029;-71
2023/07/21 01:23:41;;;;;;;24.25;13.45;;;;;;;;;;5223952;28;20047;-71
2023/07/21 01:26:12;;;;;;;28.13;14.73;;;;;;;;;;5223622;28;20009;-72
2023/07/21 01:28:44;;;;;;;28.95;15.15;;;;;;;;;;5223705;28;20087;-72
2023/07/21 01:31:14;;;;;;;25.48;13.07;;;;;;;;;;5223794;28;20071;-72
2023/07/21 01:33:46;;;;;;;102.38;13.45;;;;;;;;;;5223960;28;20021;-72
2023/07/21 01:36:17;;;;;;;109.70;13.55;;;;;;;;;;5223632;28;20548;-72
2023/07/21 01:38:48;;;;;;;80.38;11.57;;;;;;;;;;5224340;28;20387;-72
2023/07/21 01:41:18;;;;;;;48.88;13.27;;;;;;;;;;5223731;28;20048;-72
2023/07/21 01:43:49;;;;;;;45.40;11.93;;;;;;;;;;5223825;28;20172;-72
2023/07/21 01:46:19;;;;;;;32.42;15.65;;;;;;;;;;5223501;28;20017;-72
2023/07/21 01:48:49;;;;;;;29.63;16.38;;;;;;;;;;5223931;28;20028;-72
2023/07/21 01:51:21;;;;;;;50.55;17.88;;;;;;;;;;5223722;28;20394;-72
2023/07/21 01:53:54;;;;;;;38.72;17.48;;;;;;;;;;5223744;28;20387;-72
2023/07/21 01:56:38;;;;;;;57.13;19.23;;;;;;;;;;5223289;28;20059;-71
2023/07/21 01:59:10;;;;;;;37.42;13.65;;;;;;;;;;5223796;28;20029;-72
2023/07/21 02:01:41;;;;;;;51.22;13.02;;;;;;;;;;5223524;28;20049;-72
2023/07/21 02:04:13;;;;;;;29.55;12.90;;;;;;;;;;5223837;28;20020;-72
2023/07/21 02:06:43;;;;;;;35.28;14.45;;;;;;;;;;5222928;28;20120;-71
2023/07/21 02:09:14;;;;;;;35.63;16.05;;;;;;;;;;5223682;28;20100;-72
2023/07/21 02:11:44;;;;;;;31.98;15.07;;;;;;;;;;5223750;28;20021;-72
2023/07/21 02:14:16;;;;;;;41.63;15.02;;;;;;;;;;5223669;28;20029;-72
2023/07/21 02:16:46;;;;;;;50.50;13.50;;;;;;;;;;5223845;28;20536;-72
2023/07/21 02:19:17;;;;;;;92.03;13.55;;;;;;;;;;5227286;28;20044;-71
2023/07/21 02:21:48;;;;;;;121.97;13.07;;;;;;;;;;5227395;28;20013;-71
2023/07/21 02:24:18;;;;;;;46.35;11.60;;;;;;;;;;5227260;28;20443;-72
2023/07/21 02:26:48;;;;;;;37.47;14.00;;;;;;;;;;5226959;28;20025;-71
2023/07/21 02:29:19;;;;;;;35.13;15.40;;;;;;;;;;5226829;28;20364;-72
2023/07/21 02:31:49;;;;;;;38.75;16.45;;;;;;;;;;5227446;28;20040;-72
2023/07/21 02:34:20;;;;;;;39.92;15.25;;;;;;;;;;5226917;28;20043;-72
2023/07/21 02:36:50;;;;;;;28.60;15.70;;;;;;;;;;5226532;28;20032;-72
2023/07/21 02:39:20;;;;;;;29.00;15.43;;;;;;;;;;5227004;28;20068;-72
2023/07/21 02:41:51;;;;;;;29.48;13.48;;;;;;;;;;5226476;28;20105;-71
2023/07/21 02:44:21;;;;;;;21.13;12.73;;;;;;;;;;5226925;28;20009;-72
2023/07/21 02:46:52;;;;;;;27.65;13.18;;;;;;;;;;5226549;28;20035;-72
2023/07/21 02:49:22;;;;;;;24.45;12.95;;;;;;;;;;5227008;28;20096;-72
2023/07/21 02:51:52;;;;;;;23.75;13.50;;;;;;;;;;5226696;28;20021;-72
2023/07/21 02:54:23;;;;;;;26.35;13.82;;;;;;;;;;5226486;28;20159;-72
2023/07/21 02:56:53;;;;;;;37.40;16.05;;;;;;;;;;5226154;28;20016;-72
2023/07/21 02:59:25;;;;;;;29.33;16.27;;;;;;;;;;5226554;28;20033;-72
2023/07/21 03:01:56;;;;;;;29.83;16.58;;;;;;;;;;5226611;28;20471;-72
2023/07/21 03:04:26;;;;;;;28.83;15.68;;;;;;;;;;5226496;28;20024;-72
2023/07/21 03:06:57;;;;;;;27.65;14.05;;;;;;;;;;5225811;28;20020;-72
2023/07/21 03:09:28;;;;;;;30.00;15.13;;;;;;;;;;5226424;28;20039;-72
2023/07/21 03:11:59;;;;;;;30.27;14.60;;;;;;;;;;5226670;28;20028;-72
2023/07/21 03:14:29;;;;;;;21.75;14.63;;;;;;;;;;5226229;28;20397;-72
2023/07/21 03:17:00;;;;;;;23.80;14.20;;;;;;;;;;5225848;28;20017;-72
2023/07/21 03:19:30;;;;;;;26.33;14.82;;;;;;;;;;5225760;28;20025;-72
2023/07/21 03:22:01;;;;;;;27.13;14.85;;;;;;;;;;5226139;28;20021;-72
2023/07/21 03:24:32;;;;;;;26.25;15.15;;;;;;;;;;5224903;28;20431;-72
2023/07/21 03:27:03;;;;;;;25.55;15.13;;;;;;;;;;5225714;28;20029;-72
2023/07/21 03:29:33;;;;;;;22.10;13.82;;;;;;;;;;5225776;28;20539;-71
2023/07/21 03:32:04;;;;;;;32.33;14.82;;;;;;;;;;5225719;28;20029;-72
2023/07/21 03:34:35;;;;;;;27.70;13.68;;;;;;;;;;5226184;28;20025;-71
2023/07/21 03:37:08;;;;;;;56.92;14.02;;;;;;;;;;5225514;28;20500;-72
2023/07/21 03:39:38;;;;;;;58.65;13.70;;;;;;;;;;5225767;28;20395;-72
2023/07/21 03:42:08;;;;;;;50.67;13.57;;;;;;;;;;5225651;28;20031;-71
2023/07/21 03:44:39;;;;;;;41.88;15.10;;;;;;;;;;5225554;28;20356;-71
2023/07/21 03:47:10;;;;;;;28.38;13.40;;;;;;;;;;5225324;28;20063;-71
2023/07/21 03:49:40;;;;;;;36.03;14.55;;;;;;;;;;5225630;28;20414;-72
2023/07/21 03:52:10;;;;;;;30.40;14.60;;;;;;;;;;5225391;28;20032;-72
2023/07/21 03:54:41;;;;;;;34.00;16.58;;;;;;;;;;5225507;28;20040;-72
2023/07/21 03:57:11;;;;;;;33.92;17.63;;;;;;;;;;5224985;28;20021;-71
2023/07/21 03:59:42;;;;;;;37.08;16.15;;;;;;;;;;5225180;28;20386;-72
2023/07/21 04:02:12;;;;;;;27.98;15.35;;;;;;;;;;5225301;28;20029;-71
2023/07/21 04:04:43;;;;;;;31.63;17.67;;;;;;;;;;5225228;28;20474;-72
2023/07/21 04:07:13;;;;;;;26.35;15.43;;;;;;;;;;5223463;28;20047;-72
2023/07/21 04:09:43;;;;;;;20.52;13.70;;;;;;;;;;5225404;28;20025;-71
2023/07/21 04:12:14;;;;;;;17.88;11.93;;;;;;;;;;5225276;28;20021;-72
2023/07/21 04:14:44;;;;;;;21.50;13.57;;;;;;;;;;5224999;28;20025;-72
2023/07/21 04:17:15;;;;;;;22.58;13.27;;;;;;;;;;5224948;28;20463;-72
2023/07/21 04:19:45;;;;;;;35.65;14.73;;;;;;;;;;5224487;28;20386;-72
2023/07/21 04:22:16;;;;;;;32.22;12.93;;;;;;;;;;5224783;28;20021;-72
2023/07/21 04:24:46;;;;;;;34.28;10.80;;;;;;;;;;5225113;28;20021;-72
2023/07/21 04:27:17;;;;;;;28.20;11.05;;;;;;;;;;5224714;28;20368;-72
2023/07/21 04:29:47;;;;;;;54.55;14.70;;;;;;;;;;5225217;28;20078;-71
2023/07/21 04:32:17;;;;;;;20.50;13.18;;;;;;;;;;5224471;28;20390;-72
2023/07/21 04:34:47;;;;;;;36.35;14.45;;;;;;;;;;5224780;28;20104;-71
2023/07/21 04:37:18;;;;;;;29.55;14.70;;;;;;;;;;5224299;28;20413;-71
2023/07/21 04:39:48;;;;;;;24.85;14.20;;;;;;;;;;5223960;28;20025;-71
2023/07/21 04:42:18;;;;;;;29.30;15.15;;;;;;;;;;5224631;28;20024;-71
2023/07/21 04:44:49;;;;;;;40.05;16.85;;;;;;;;;;5224303;28;20017;-72
2023/07/21 04:47:19;;;;;;;36.22;17.90;;;;;;;;;;5224194;28;20009;-71
2023/07/21 04:49:50;;;;;;;39.75;16.42;;;;;;;;;;5225149;28;20017;-72
2023/07/21 04:52:22;;;;;;;34.42;16.15;;;;;;;;;;5224469;28;20410;-72
2023/07/21 04:54:52;;;;;;;30.55;15.07;;;;;;;;;;5224415;28;20021;-72
2023/07/21 04:57:22;;;;;;;34.75;17.02;;;;;;;;;;5223729;28;20064;-71
2023/07/21 04:59:52;;;;;;;26.08;14.55;;;;;;;;;;5224167;28;20131;-72
2023/07/21 05:02:25;;;;;;;32.05;15.07;;;;;;;;;;5224276;28;20032;-71
2023/07/21 05:04:57;;;;;;;32.45;15.25;;;;;;;;;;5224339;28;20016;-72
2023/07/21 05:07:27;;;;;;;37.00;17.38;;;;;;;;;;5223849;28;20029;-71
2023/07/21 05:09:58;;;;;;;43.85;17.55;;;;;;;;;;5223770;28;20423;-71
2023/07/21 05:12:28;;;;;;;31.65;15.77;;;;;;;;;;5224161;28;20025;-71
2023/07/21 05:14:58;;;;;;;58.78;18.13;;;;;;;;;;5224532;28;20475;-71
2023/07/21 05:17:29;;;;;;;40.35;18.40;;;;;;;;;;5223536;28;20033;-71
2023/07/21 05:19:59;;;;;;;43.53;18.48;;;;;;;;;;5224235;28;20025;-71
2023/07/21 05:22:29;;;;;;;51.90;17.27;;;;;;;;;;5223593;28;20570;-71
2023/07/21 05:24:59;;;;;;;61.22;17.95;;;;;;;;;;5224002;28;20021;-71
2023/07/21 05:27:30;;;;;;;48.47;19.63;;;;;;;;;;5223523;28;20417;-71
2023/07/21 05:30:00;;;;;;;34.67;17.92;;;;;;;;;;5224064;28;20079;-72
2023/07/21 05:32:30;;;;;;;44.08;20.45;;;;;;;;;;5223992;28;20354;-71
2023/07/21 05:35:06;;;;;;;40.47;19.85;;;;;;;;;;5223679;28;20036;-71
2023/07/21 05:37:37;;;;;;;35.35;18.05;;;;;;;;;;5223590;28;20449;-71
2023/07/21 05:40:09;;;;;;;42.40;18.20;;;;;;;;;;5223739;28;20024;-71
2023/07/21 05:42:39;;;;;;;32.92;18.48;;;;;;;;;;5224014;28;20017;-71
2023/07/21 05:45:10;;;;;;;35.72;18.77;;;;;;;;;;5223427;28;20021;-71
2023/07/21 05:47:41;;;;;;;34.83;18.85;;;;;;;;;;5223342;28;20028;-71
2023/07/21 05:50:11;;;;;;;29.75;17.80;;;;;;;;;;5223766;28;20017;-71
2023/07/21 05:52:41;;;;;;;30.98;18.60;;;;;;;;;;5227904;28;20025;-71
2023/07/21 05:55:12;;;;;;;27.33;16.73;;;;;;;;;;5227779;28;20033;-71
2023/07/21 05:57:42;;;;;;;30.02;18.70;;;;;;;;;;5227068;28;20025;-71
2023/07/21 06:00:15;;;;;;;26.40;17.25;;;;;;;;;;5227605;28;20025;-72
2023/07/21 06:02:45;;;;;;;32.17;17.15;;;;;;;;;;5227829;28;20025;-72
2023/07/21 06:05:16;;;;;;;25.15;16.23;;;;;;;;;;5227761;28;20589;-72
2023/07/21 06:07:46;;;;;;;28.52;17.30;;;;;;;;;;5227216;28;20052;-71
2023/07/21 06:10:16;;;;;;;28.50;17.55;;;;;;;;;;5227348;28;20067;-72
2023/07/21 06:12:47;;;;;;;29.85;17.90;;;;;;;;;;5227454;28;20035;-71
2023/07/21 06:15:18;;;;;;;23.25;16.17;;;;;;;;;;5226666;28;20028;-71
2023/07/21 06:17:48;;;;;;;22.80;16.08;;;;;;;;;;5226962;28;20495;-71
2023/07/21 06:20:20;;;;;;;23.80;15.98;;;;;;;;;;5227298;28;20059;-71
2023/07/21 06:22:51;;;;;;;24.90;17.33;;;;;;;;;;5226796;28;20444;-71
2023/07/21 06:25:21;;;;;;;27.25;16.80;;;;;;;;;;5227202;28;20147;-72
2023/07/21 06:27:52;;;;;;;24.05;17.10;;;;;;;;;;5227150;28;20029;-72
2023/07/21 06:30:22;;;;;;;23.20;16.35;;;;;;;;;;5227330;28;20025;-72
2023/07/21 06:32:52;;;;;;;25.35;18.08;;;;;;;;;;5227203;28;20028;-72
2023/07/21 06:35:22;;;;;;;23.23;14.80;;;;;;;;;;5226609;28;20542;-72
2023/07/21 06:37:53;;;;;;;24.67;17.70;;;;;;;;;;5226746;28;20466;-71
2023/07/21 06:40:23;;;;;;;26.98;16.48;;;;;;;;;;5226788;28;20027;-72
2023/07/21 06:42:54;;;;;;;23.00;15.60;;;;;;;;;;5227089;28;20493;-72
2023/07/21 06:45:24;;;;;;;23.45;15.77;;;;;;;;;;5226712;28;20475;-72
2023/07/21 06:47:55;;;;;;;21.88;15.40;;;;;;;;;;5226388;28;20033;-72
2023/07/21 06:50:25;;;;;;;28.35;17.98;;;;;;;;;;5226937;28;20049;-72
2023/07/21 06:52:55;;;;;;;26.40;18.50;;;;;;;;;;5226668;28;20027;-72
2023/07/21 06:55:26;;;;;;;32.38;23.77;;;;;;;;;;5226934;28;20024;-71
2023/07/21 06:57:56;;;;;;;29.35;21.58;;;;;;;;;;5226356;28;20032;-72
2023/07/21 07:00:27;;;;;;;27.90;20.63;;;;;;;;;;5226288;28;20124;-71
2023/07/21 07:02:57;;;;;;;26.80;18.58;;;;;;;;;;5225577;28;20033;-72
2023/07/21 07:05:28;;;;;;;23.10;17.42;;;;;;;;;;5226503;28;20474;-71
2023/07/21 07:07:59;;;;;;;22.40;16.13;;;;;;;;;;5226064;28;20033;-72
2023/07/21 07:10:29;;;;;;;24.10;17.60;;;;;;;;;;5226202;28;20078;-71
2023/07/21 07:12:59;;;;;;;23.23;17.00;;;;;;;;;;5226193;28;20120;-72
2023/07/21 07:15:30;;;;;;;21.70;16.30;;;;;;;;;;5226222;28;20028;-72
2023/07/21 07:18:00;;;;;;;21.83;16.00;;;;;;;;;;5225812;28;20035;-71
2023/07/21 07:20:30;;;;;;;25.13;17.73;;;;;;;;;;5226055;28;20105;-72
2023/07/21 07:23:01;;;;;;;20.25;15.52;;;;;;;;;;5225809;28;20025;-72
2023/07/21 07:25:31;;;;;;;26.15;15.98;;;;;;;;;;5225693;28;20021;-72
2023/07/21 07:28:03;;;;;;;17.50;13.65;;;;;;;;;;5225821;28;20024;-72
2023/07/21 07:30:34;;;;;;;18.55;14.20;;;;;;;;;;5225879;28;20048;-71
2023/07/21 07:33:04;;;;;;;21.33;15.05;;;;;;;;;;5226051;28;20056;-72
2023/07/21 07:35:34;;;;;;;23.75;14.65;;;;;;;;;;5225216;28;20043;-71
2023/07/21 07:38:05;;;;;;;20.65;15.10;;;;;;;;;;5225805;28;20463;-72
2023/07/21 07:40:35;;;;;;;20.90;15.60;;;;;;;;;;5225575;28;20470;-72
2023/07/21 07:43:05;;;;;;;20.65;15.18;;;;;;;;;;5225836;28;20033;-71
2023/07/21 07:45:36;;;;;;;20.33;14.82;;;;;;;;;;5225345;28;20680;-72
2023/07/21 07:48:07;;;;;;;24.08;16.38;;;;;;;;;;5224966;28;20024;-71
2023/07/21 07:50:39;;;;;;;22.20;14.43;;;;;;;;;;5225650;28;20027;-71
2023/07/21 07:53:09;;;;;;;17.48;12.93;;;;;;;;;;5225419;28;20021;-71
2023/07/21 07:55:40;;;;;;;18.90;13.02;;;;;;;;;;5225313;28;20032;-72
2023/07/21 07:58:11;;;;;;;20.35;12.40;;;;;;;;;;5225629;28;20021;-71
2023/07/21 08:00:43;;;;;;;18.08;13.07;;;;;;;;;;5224796;28;20462;-72
2023/07/21 08:03:13;;;;;;;18.95;12.30;;;;;;;;;;5225216;28;20025;-72
2023/07/21 08:05:44;;;;;;;16.88;12.18;;;;;;;;;;5224917;28;20021;-72
2023/07/21 08:08:14;;;;;;;17.17;11.18;;;;;;;;;;5225197;28;20024;-72
2023/07/21 08:10:45;;;;;;;16.10;12.43;;;;;;;;;;5225402;28;20021;-72
2023/07/21 08:13:15;;;;;;;13.27;10.50;;;;;;;;;;5224611;28;20436;-72
2023/07/21 08:15:46;;;;;;;17.85;13.30;;;;;;;;;;5224721;28;20025;-72
2023/07/21 08:18:16;;;;;;;19.02;12.93;;;;;;;;;;5225017;28;20033;-72
2023/07/21 08:20:49;;;;;;;17.33;13.20;;;;;;;;;;5224987;28;20099;-72
2023/07/21 08:23:20;;;;;;;20.27;12.95;;;;;;;;;;5225063;28;20020;-72
2023/07/21 08:25:50;;;;;;;22.25;14.20;;;;;;;;;;5224234;28;20040;-72
2023/07/21 08:28:20;;;;;;;22.77;14.90;;;;;;;;;;5224813;28;20021;-72
2023/07/21 08:30:51;;;;;;;20.88;15.63;;;;;;;;;;5224942;28;20071;-72
2023/07/21 08:33:21;;;;;;;20.17;14.40;;;;;;;;;;5224885;28;20033;-72
2023/07/21 08:35:51;;;;;;;22.80;16.00;;;;;;;;;;5224293;28;20025;-71
2023/07/21 08:38:22;;;;;;;21.85;13.55;;;;;;;;;;5224344;28;20068;-71
2023/07/21 08:40:56;;;;;;;24.13;16.20;;;;;;;;;;5224581;28;20021;-72
2023/07/21 08:43:26;;;;;;;22.17;15.68;;;;;;;;;;5224509;28;20017;-71
2023/07/21 08:45:58;;;;;;;27.38;17.55;;;;;;;;;;5224187;28;20032;-71
2023/07/21 08:48:30;;;;;;;21.42;14.80;;;;;;;;;;5224486;28;20021;-71
2023/07/21 08:51:00;;;;;;;23.05;16.25;;;;;;;;;;5225083;28;20021;-72
2023/07/21 08:53:31;;;;;;;24.38;14.52;;;;;;;;;;5224758;28;20074;-71
2023/07/21 08:56:02;;;;;;;23.85;14.80;;;;;;;;;;5224140;28;20029;-71
2023/07/21 08:58:32;;;;;;;23.83;15.68;;;;;;;;;;5224227;28;20048;-72
2023/07/21 09:01:05;;;;;;;20.98;15.02;;;;;;;;;;5223909;28;20541;-72
2023/07/21 09:03:35;;;;;;;19.42;13.93;;;;;;;;;;5224006;28;20025;-72
2023/07/21 09:06:05;;;;;;;21.50;16.05;;;;;;;;;;5223925;28;20541;-72
2023/07/21 09:08:35;;;;;;;21.85;16.35;;;;;;;;;;5224005;28;20028;-72
2023/07/21 09:11:07;;;;;;;23.23;15.98;;;;;;;;;;5224118;28;20055;-72
2023/07/21 09:13:38;;;;;;;17.83;11.80;;;;;;;;;;5223779;28;20043;-72
2023/07/21 09:16:08;;;;;;;19.52;13.63;;;;;;;;;;5222492;28;20024;-72
2023/07/21 09:18:41;;;;;;;20.70;13.98;;;;;;;;;;5224098;28;20104;-72
2023/07/21 09:21:23;;;;;;;21.90;12.35;;;;;;;;;;5223986;28;20017;-72
2023/07/21 09:24:00;;;;;;;19.40;13.10;;;;;;;;;;5223679;28;20025;-72
2023/07/21 09:26:30;;;;;;;18.45;13.40;;;;;;;;;;5228264;28;20024;-72
2023/07/21 09:29:01;;;;;;;13.60;9.98;;;;;;;;;;5229637;28;20021;-72
2023/07/21 09:31:33;;;;;;;19.10;13.10;;;;;;;;;;5231024;28;20092;-72
2023/07/21 09:34:05;;;;;;;16.23;11.55;;;;;;;;;;5230771;28;20017;-72
2023/07/21 09:36:35;;;;;;;15.25;11.68;;;;;;;;;;5230454;28;20367;-72
2023/07/21 09:39:07;;;;;;;14.55;10.05;;;;;;;;;;5230700;28;20017;-72
2023/07/21 09:41:37;;;;;;;13.13;9.43;;;;;;;;;;5230946;28;20586;-72
2023/07/21 09:44:08;;;;;;;14.25;9.85;;;;;;;;;;5231142;28;20095;-72
2023/07/21 09:46:38;;;;;;;14.10;8.50;;;;;;;;;;5230193;28;20360;-72
2023/07/21 09:49:09;;;;;;;11.60;8.70;;;;;;;;;;5230231;28;20067;-72
2023/07/21 09:51:41;;;;;;;14.95;9.00;;;;;;;;;;5230661;28;20052;-73
2023/07/21 09:54:13;;;;;;;10.88;7.55;;;;;;;;;;5230654;28;20124;-72
2023/07/21 09:56:45;;;;;;;13.18;8.80;;;;;;;;;;5230179;28;20118;-73
2023/07/21 09:59:15;;;;;;;10.98;8.30;;;;;;;;;;5230309;28;20013;-72
2023/07/21 10:01:48;;;;;;;12.65;8.60;;;;;;;;;;5230350;28;20044;-73
2023/07/21 10:04:19;;;;;;;15.45;9.95;;;;;;;;;;5230966;28;20105;-72
2023/07/21 10:06:50;;;;;;;13.52;9.30;;;;;;;;;;5229996;28;20435;-72
2023/07/21 10:09:20;;;;;;;12.70;8.77;;;;;;;;;;5230309;28;20386;-72
2023/07/21 10:11:50;;;;;;;16.20;10.35;;;;;;;;;;5230288;28;20024;-72
2023/07/21 10:14:39;;;;;;;17.60;10.68;;;;;;;;;;5230598;28;20421;-72
2023/07/21 10:17:10;;;;;;;16.77;10.90;;;;;;;;;;5229986;28;20025;-72
2023/07/21 10:19:40;;;;;;;15.00;11.07;;;;;;;;;;5230311;28;20355;-72
2023/07/21 10:22:12;;;;;;;14.27;10.25;;;;;;;;;;5230352;28;20497;-72
2023/07/21 10:24:44;;;;;;;15.77;10.10;;;;;;;;;;5229879;28;20036;-72
2023/07/21 10:27:33;;;;;;;19.63;11.98;;;;;;;;;;5229895;28;20009;-72
2023/07/21 10:30:18;;;;;;;18.95;13.15;;;;;;;;;;5230442;28;20036;-72
2023/07/21 10:32:50;;;;;;;21.73;12.50;;;;;;;;;;5230169;28;20386;-72
2023/07/21 10:35:35;;;;;;;17.00;11.85;;;;;;;;;;5230159;28;20165;-72
2023/07/21 10:38:15;;;;;;;15.55;9.63;;;;;;;;;;5226769;28;20020;-71
2023/07/21 10:40:46;;;;;;;12.73;5.82;;;;;;;;;;5226815;28;20029;-71
2023/07/21 10:43:16;;;;;;;11.30;5.10;;;;;;;;;;5226739;28;20175;-72
2023/07/21 10:46:02;;;;;;;12.20;4.82;;;;;;;;;;5226912;28;20032;-72
2023/07/21 10:48:32;;;;;;;13.65;5.63;;;;;;;;;;5226537;28;20021;-72
2023/07/21 10:51:03;;;;;;;17.38;7.05;;;;;;;;;;5227228;28;20037;-72
2023/07/21 10:53:33;;;;;;;11.70;5.95;;;;;;;;;;5226481;28;20025;-72
2023/07/21 10:56:07;;;;;;;17.00;7.22;;;;;;;;;;5225293;28;20102;-71
2023/07/21 10:58:37;;;;;;;13.48;8.25;;;;;;;;;;5226535;28;20107;-72
2023/07/21 11:01:07;;;;;;;10.00;7.10;;;;;;;;;;5226565;28;20103;-71
2023/07/21 11:03:41;;;;;;;14.82;9.52;;;;;;;;;;5226589;28;20025;-71
2023/07/21 11:06:12;;;;;;;16.15;9.63;;;;;;;;;;5225797;28;20478;-71
2023/07/21 11:08:43;;;;;;;11.18;7.68;;;;;;;;;;5226256;28;20027;-71
2023/07/21 11:11:13;;;;;;;11.82;8.55;;;;;;;;;;5226268;28;20037;-71
2023/07/21 11:13:44;;;;;;;12.98;8.98;;;;;;;;;;5226414;28;20701;-71
2023/07/21 11:16:14;;;;;;;12.70;9.18;;;;;;;;;;5226216;28;20040;-71
2023/07/21 11:18:44;;;;;;;10.77;7.70;;;;;;;;;;5225668;28;20367;-71
2023/07/21 11:21:15;;;;;;;16.88;10.15;;;;;;;;;;5226390;28;20258;-71
2023/07/21 11:23:45;;;;;;;16.70;9.82;;;;;;;;;;5226167;28;20084;-71
2023/07/21 11:26:15;;;;;;;16.73;9.23;;;;;;;;;;5225775;28;20017;-70
2023/07/21 11:28:45;;;;;;;16.25;10.13;;;;;;;;;;5225906;28;20021;-71
2023/07/21 11:31:18;;;;;;;12.05;8.85;;;;;;;;;;5225704;28;20060;-71
2023/07/21 11:33:49;;;;;;;13.40;9.20;;;;;;;;;;5226005;28;20047;-70
2023/07/21 11:36:22;;;;;;;11.85;8.82;;;;;;;;;;5225870;28;20059;-71
2023/07/21 11:39:11;;;;;;;12.23;9.43;;;;;;;;;;5225661;28;20025;-71
2023/07/21 11:41:41;;;;;;;18.42;10.20;;;;;;;;;;5225650;28;20067;-71
2023/07/21 11:44:16;;;;;;;13.02;9.65;;;;;;;;;;5225646;28;20076;-71
2023/07/21 11:47:05;;;;;;;18.80;10.70;;;;;;;;;;5225264;28;20441;-71
2023/07/21 11:49:37;;;;;;;17.90;10.43;;;;;;;;;;5225246;28;20383;-71
2023/07/21 11:52:09;;;;;;;14.02;10.00;;;;;;;;;;5225473;28;20566;-71
2023/07/21 11:54:41;;;;;;;19.45;10.65;;;;;;;;;;5225457;28;20111;-71
2023/07/21 11:57:12;;;;;;;18.00;11.18;;;;;;;;;;5225291;28;20025;-72
2023/07/21 11:59:42;;;;;;;18.90;11.55;;;;;;;;;;5225449;28;20044;-71
2023/07/21 12:02:13;;;;;;;16.85;12.10;;;;;;;;;;5224964;28;20025;-71
2023/07/21 12:04:44;;;;;;;21.13;14.48;;;;;;;;;;5225296;28;20013;-71
2023/07/21 12:07:14;;;;;;;22.23;13.98;;;;;;;;;;5224861;28;20462;-71
2023/07/21 12:09:45;;;;;;;19.85;14.40;;;;;;;;;;5225128;28;20021;-71
2023/07/21 12:12:15;;;;;;;20.50;13.68;;;;;;;;;;5225434;28;20027;-71
2023/07/21 12:14:46;;;;;;;22.65;14.52;;;;;;;;;;5224657;28;20167;-71
2023/07/21 12:17:17;;;;;;;20.00;12.02;;;;;;;;;;5224578;28;20020;-71
2023/07/21 12:19:47;;;;;;;15.07;10.85;;;;;;;;;;5225063;28;20017;-70
2023/07/21 12:22:17;;;;;;;19.45;13.45;;;;;;;;;;5224969;28;20111;-71
2023/07/21 12:24:48;;;;;;;15.52;11.57;;;;;;;;;;5224945;28;20032;-72
2023/07/21 12:27:18;;;;;;;20.25;12.73;;;;;;;;;;5224111;28;20028;-72
2023/07/21 12:29:48;;;;;;;19.55;12.50;;;;;;;;;;5224879;28;20056;-72
2023/07/21 12:32:18;;;;;;;20.77;13.52;;;;;;;;;;5224950;28;20074;-72
2023/07/21 12:34:49;;;;;;;21.15;13.68;;;;;;;;;;5224943;28;20029;-71
2023/07/21 12:37:19;;;;;;;20.98;12.50;;;;;;;;;;5224322;28;20020;-71
2023/07/21 12:39:50;;;;;;;21.30;12.73;;;;;;;;;;5224201;28;20025;-71
2023/07/21 12:42:20;;;;;;;18.92;13.55;;;;;;;;;;5224568;28;20036;-72
2023/07/21 12:44:51;;;;;;;19.48;13.70;;;;;;;;;;5224657;28;20482;-71
2023/07/21 12:47:21;;;;;;;19.15;13.52;;;;;;;;;;5224151;28;20017;-72
2023/07/21 12:49:51;;;;;;;22.42;13.75;;;;;;;;;;5224328;28;20489;-72
2023/07/21 12:52:21;;;;;;;16.83;11.32;;;;;;;;;;5224053;28;20025;-72
2023/07/21 12:54:52;;;;;;;18.85;12.13;;;;;;;;;;5223306;28;20478;-71
2023/07/21 12:57:22;;;;;;;18.77;12.40;;;;;;;;;;5224162;28;20112;-71
2023/07/21 12:59:52;;;;;;;15.50;10.55;;;;;;;;;;5223930;28;20051;-71
2023/07/21 13:02:23;;;;;;;15.43;9.77;;;;;;;;;;5223865;28;20083;-72
2023/07/21 13:04:53;;;;;;;13.00;8.30;;;;;;;;;;5223880;28;20017;-71
2023/07/21 13:07:23;;;;;;;16.27;9.43;;;;;;;;;;5223727;28;20005;-72
2023/07/21 13:09:53;;;;;;;14.98;8.82;;;;;;;;;;5224099;28;20097;-71
2023/07/21 13:12:24;;;;;;;13.35;7.75;;;;;;;;;;5224702;28;20040;-71
2023/07/21 13:14:54;;;;;;;13.65;8.82;;;;;;;;;;5223934;28;20027;-71
2023/07/21 13:17:25;;;;;;;15.10;8.13;;;;;;;;;;5223288;28;20066;-72
2023/07/21 13:19:56;;;;;;;17.60;9.60;;;;;;;;;;5224094;28;20441;-71
2023/07/21 13:22:26;;;;;;;14.77;8.57;;;;;;;;;;5223967;28;20071;-71
2023/07/21 13:24:56;;;;;;;13.88;8.10;;;;;;;;;;5223987;28;20017;-71
2023/07/21 13:27:26;;;;;;;15.10;8.23;;;;;;;;;;5223468;28;20075;-71
2023/07/21 13:29:57;;;;;;;21.88;9.55;;;;;;;;;;5223596;28;20032;-71
2023/07/21 13:32:27;;;;;;;14.40;8.88;;;;;;;;;;5224178;28;20025;-71
2023/07/21 13:34:57;;;;;;;21.92;9.63;;;;;;;;;;5224066;28;20099;-71
2023/07/21 13:37:28;;;;;;;15.80;8.85;;;;;;;;;;5223488;28;20075;-71
2023/07/21 13:39:58;;;;;;;13.88;8.25;;;;;;;;;;5223908;28;20036;-71
2023/07/21 13:42:28;;;;;;;18.20;8.88;;;;;;;;;;5223582;28;20108;-71
2023/07/21 13:44:58;;;;;;;17.42;8.68;;;;;;;;;;5223869;28;20051;-72
2023/07/21 13:47:30;;;;;;;16.42;9.25;;;;;;;;;;5223512;28;20021;-72
2023/07/21 13:50:00;;;;;;;15.20;8.77;;;;;;;;;;5223617;28;20052;-72
2023/07/21 13:52:30;;;;;;;19.98;10.27;;;;;;;;;;5223851;28;20060;-72
2023/07/21 13:55:01;;;;;;;16.55;8.77;;;;;;;;;;5223273;28;20498;-72
2023/07/21 13:57:31;;;;;;;13.80;8.13;;;;;;;;;;5223334;28;20497;-72
2023/07/21 14:00:02;;;;;;;14.77;8.55;;;;;;;;;;5223454;28;20025;-72
2023/07/21 14:02:32;;;;;;;14.68;7.57;;;;;;;;;;5223635;28;20116;-72
2023/07/21 14:05:03;;;;;;;10.30;5.97;;;;;;;;;;5223437;28;20356;-71
2023/07/21 14:07:33;;;;;;;11.60;6.15;;;;;;;;;;5223044;28;20017;-71
2023/07/21 14:10:04;;;;;;;12.00;6.55;;;;;;;;;;5223581;28;20367;-71
2023/07/21 14:12:34;;;;;;;11.43;6.13;;;;;;;;;;5225909;28;20024;-71
2023/07/21 14:15:05;;;;;;;11.27;6.78;;;;;;;;;;5227408;28;20035;-71
2023/07/21 14:17:36;;;;;;;11.52;6.68;;;;;;;;;;5226787;28;20021;-71
2023/07/21 14:20:09;;;;;;;18.10;6.45;;;;;;;;;;5227062;28;20074;-71
2023/07/21 14:22:39;;;;;;;10.40;5.95;;;;;;;;;;5227314;28;20020;-71
2023/07/21 14:25:10;;;;;;;10.85;6.60;;;;;;;;;;5227284;28;20391;-71
2023/07/21 14:27:41;;;;;;;8.20;5.95;;;;;;;;;;5226951;28;20013;-71
2023/07/21 14:30:11;;;;;;;11.27;6.82;;;;;;;;;;5226740;28;20061;-71
2023/07/21 14:32:42;;;;;;;14.57;6.47;;;;;;;;;;5227147;28;20028;-71
2023/07/21 14:35:12;;;;;;;14.25;6.75;;;;;;;;;;5227022;28;20036;-71
2023/07/21 14:37:42;;;;;;;13.13;6.88;;;;;;;;;;5227100;28;20025;-71
2023/07/21 14:40:14;;;;;;;12.18;5.95;;;;;;;;;;5226777;28;20058;-71
2023/07/21 14:42:44;;;;;;;10.63;5.93;;;;;;;;;;5227060;28;20025;-71